Time;durP1;ratioP1;P1;durP2;ratioP2;P2;SDS_P1;SDS_P2;PMS_P1;PMS_P2;Temp;Humidity;BMP_temperature;BMP_pressure;BME280_temperature;BME280_humidity;BME280_pressure;Samples;Min_cycle;Max_cycle;Signal;HPM_P1;HPM_P2
2022/01/06 00:00:28;;;;;;;3.53;2.30;;;3.90;73.00;;;2.97;58.63;94090.53;5057692;28;20306;-82
2022/01/06 00:02:56;;;;;;;6.60;2.42;;;4.00;73.10;;;3.00;58.28;94087.59;5041239;28;20569;-83
2022/01/06 00:05:24;;;;;;;3.88;2.20;;;4.00;73.10;;;3.04;58.16;94081.13;5040653;28;20605;-82
2022/01/06 00:07:52;;;;;;;3.97;2.10;;;4.00;73.00;;;3.06;58.32;94076.56;5040709;28;20641;-83
2022/01/06 00:10:20;;;;;;;3.58;2.00;;;4.00;73.10;;;3.07;57.92;94078.19;5039942;28;20261;-82
2022/01/06 00:13:04;;;;;;;5.15;2.40;;;4.00;73.90;;;3.03;58.14;94079.50;5040834;28;20215;-83
2022/01/06 00:18:31;;;;;;;4.05;2.10;;;4.00;73.80;;;3.02;58.10;94072.72;5054152;28;20223;-83
2022/01/06 00:23:44;;;;;;;3.85;2.22;;;4.00;72.90;;;3.02;58.21;94068.31;5054439;28;20192;-84
2022/01/06 00:26:11;;;;;;;3.55;2.20;;;4.00;73.00;;;3.06;58.36;94066.22;5057050;28;20318;-83
2022/01/06 00:28:39;;;;;;;3.00;2.25;;;4.00;73.90;;;3.04;57.87;94065.59;5057639;28;20653;-83
2022/01/06 00:31:06;;;;;;;4.18;2.17;;;4.00;73.00;;;3.09;57.97;94059.88;5057628;28;20215;-83
2022/01/06 00:33:34;;;;;;;3.25;2.33;;;4.00;73.00;;;3.10;58.32;94062.34;5057358;28;20626;-84
2022/01/06 00:36:01;;;;;;;3.22;2.20;;;4.10;73.00;;;3.10;58.52;94059.75;5041138;28;20305;-83
2022/01/06 00:38:28;;;;;;;3.03;1.92;;;4.10;73.10;;;3.09;58.03;94068.47;5040910;28;20598;-84
2022/01/06 00:40:57;;;;;;;2.83;2.08;;;4.10;73.00;;;3.06;57.99;94061.03;5057388;28;20254;-83
2022/01/06 00:43:24;;;;;;;4.38;2.40;;;4.10;73.00;;;3.03;58.21;94077.72;5040068;28;20187;-83
2022/01/06 00:45:51;;;;;;;5.30;2.30;;;4.10;72.90;;;3.01;58.27;94071.09;5057272;28;20215;-83
2022/01/06 00:48:19;;;;;;;4.32;2.30;;;4.10;72.90;;;2.99;57.93;94070.44;5041058;28;20209;-83
2022/01/06 00:50:47;;;;;;;6.82;2.53;;;4.10;72.90;;;2.98;58.39;94076.59;5056993;28;20306;-82
2022/01/06 00:53:14;;;;;;;4.45;2.50;;;4.00;72.90;;;2.96;58.09;94079.34;5073384;28;20300;-83
2022/01/06 00:55:41;;;;;;;4.78;2.60;;;4.00;73.00;;;2.96;58.06;94066.41;5056434;28;20222;-83
2022/01/06 00:58:09;;;;;;;2.72;2.13;;;4.00;72.90;;;2.94;58.27;94070.97;5057510;28;20204;-83
2022/01/06 01:00:40;;;;;;;6.05;2.60;;;4.00;73.00;;;2.95;58.49;94082.91;5073717;28;20269;-83
2022/01/06 01:03:13;;;;;;;4.28;2.40;;;4.00;73.10;;;2.92;58.49;94082.44;5057604;28;20595;-84
2022/01/06 01:05:43;;;;;;;4.13;2.80;;;3.90;73.00;;;2.92;58.52;94082.44;5073343;28;20732;-84
2022/01/06 01:08:11;;;;;;;3.00;2.47;;;4.00;73.10;;;2.88;58.59;94080.19;5057034;28;20657;-83
2022/01/06 01:10:39;;;;;;;8.57;3.22;;;4.00;73.20;;;2.91;58.83;94092.00;5040356;28;20705;-83
2022/01/06 01:13:10;;;;;;;5.85;2.67;;;3.90;73.30;;;2.88;58.49;94066.41;5056664;28;20226;-83
2022/01/06 01:15:50;;;;;;;5.10;2.72;;;4.00;73.40;;;2.91;58.71;94078.25;5056612;28;20215;-83
2022/01/06 01:18:19;;;;;;;3.28;2.47;;;4.00;73.30;;;2.91;59.00;94073.88;5041119;28;20194;-83
2022/01/06 01:20:52;;;;;;;3.22;2.58;;;4.00;73.30;;;2.93;58.73;94089.22;5036753;28;20681;-83
2022/01/06 01:23:21;;;;;;;4.00;2.90;;;4.00;73.40;;;2.93;58.67;94094.41;5039972;28;20630;-84
2022/01/06 01:25:48;;;;;;;3.85;2.55;;;4.00;74.20;;;2.93;58.71;94082.28;5040045;28;20572;-83
2022/01/06 01:28:16;;;;;;;6.28;2.30;;;4.00;73.30;;;2.93;58.76;94084.88;5056778;28;20261;-84
2022/01/06 01:31:01;;;;;;;5.38;2.97;;;4.00;73.30;;;2.94;58.62;94090.84;5056622;28;20243;-83
2022/01/06 01:33:31;;;;;;;5.00;2.35;;;4.00;73.20;;;2.90;58.63;94092.97;5041556;28;20223;-83
2022/01/06 01:35:58;;;;;;;6.07;2.67;;;4.00;73.20;;;2.83;58.39;94104.94;5056730;28;20641;-84
2022/01/06 01:38:25;;;;;;;3.38;2.10;;;4.00;73.20;;;2.84;58.74;94089.25;5056850;28;20234;-83
2022/01/06 01:40:52;;;;;;;5.38;2.38;;;3.90;73.10;;;2.86;58.80;94089.91;5056442;28;20702;-84
2022/01/06 01:43:19;;;;;;;4.05;2.20;;;3.90;73.20;;;2.83;59.05;94099.78;5036015;28;20192;-82
2022/01/06 01:45:54;;;;;;;5.90;2.75;;;3.90;73.30;;;2.82;58.67;94090.38;5043832;28;20280;-83
2022/01/06 01:48:28;;;;;;;5.40;2.50;;;3.90;73.30;;;2.86;58.80;94086.50;5057226;28;20210;-83
2022/01/06 01:50:55;;;;;;;3.42;2.40;;;3.90;73.30;;;2.83;58.78;94081.66;5040519;28;20292;-83
2022/01/06 01:53:23;;;;;;;5.05;2.75;;;3.90;73.40;;;2.86;58.78;94097.66;5055729;28;20243;-84
2022/01/06 01:55:50;;;;;;;3.50;2.40;;;3.90;73.40;;;2.87;58.86;94095.91;5056042;28;20219;-84
2022/01/06 01:58:20;;;;;;;5.97;2.58;;;3.90;73.40;;;2.86;58.66;94110.63;5039546;28;20335;-84
2022/01/06 02:00:48;;;;;;;4.88;2.78;;;3.90;73.50;;;2.86;58.97;94095.06;5055989;28;20284;-83
2022/01/06 02:03:15;;;;;;;6.40;2.60;;;3.90;73.50;;;2.85;59.32;94111.59;5039663;28;20550;-83
2022/01/06 02:05:43;;;;;;;4.22;2.75;;;3.90;73.50;;;2.92;58.79;94097.97;5035620;28;20228;-83
2022/01/06 02:08:11;;;;;;;6.93;3.10;;;3.90;73.50;;;2.91;58.97;94101.56;5035974;28;20196;-83
2022/01/06 02:10:38;;;;;;;4.90;2.58;;;3.90;73.50;;;2.91;58.75;94092.00;5019792;28;20224;-82
2022/01/06 02:13:05;;;;;;;3.72;2.30;;;3.90;73.50;;;2.90;58.77;94079.22;5041848;28;20677;-83
2022/01/06 02:15:32;;;;;;;4.13;2.42;;;3.90;73.50;;;2.91;58.87;94080.84;5055654;28;20215;-83
2022/01/06 02:18:00;;;;;;;4.32;2.33;;;3.90;73.60;;;2.94;58.77;94090.84;5055692;28;20649;-83
2022/01/06 02:20:28;;;;;;;3.63;2.20;;;4.00;73.50;;;2.90;59.11;94084.41;5039329;28;20223;-83
2022/01/06 02:22:56;;;;;;;3.42;2.03;;;4.00;73.50;;;2.90;58.42;94081.81;5038962;28;20554;-82
2022/01/06 02:25:33;;;;;;;3.58;2.33;;;4.00;73.50;;;2.92;58.88;94083.25;5055418;28;20225;-83
2022/01/06 02:28:03;;;;;;;2.40;2.20;;;3.90;73.40;;;2.91;58.57;94081.63;5038971;28;20649;-84
2022/01/06 02:30:33;;;;;;;4.63;2.30;;;3.90;73.40;;;2.92;59.06;94088.44;5039059;28;20313;-83
2022/01/06 02:33:01;;;;;;;3.53;2.20;;;4.00;73.50;;;2.90;58.84;94087.00;5054614;28;20253;-82
2022/01/06 02:35:30;;;;;;;4.93;2.22;;;4.00;73.50;;;2.94;58.94;94085.69;5038801;28;20215;-83
2022/01/06 02:37:58;;;;;;;4.63;2.13;;;4.00;73.50;;;2.96;58.84;94104.47;5054727;28;20294;-83
2022/01/06 02:40:26;;;;;;;3.67;2.25;;;4.00;73.50;;;2.93;58.41;94102.19;5055157;28;20254;-83
2022/01/06 02:42:58;;;;;;;2.92;2.08;;;4.00;73.40;;;2.94;58.85;94096.03;5038751;28;20195;-82
2022/01/06 02:45:28;;;;;;;4.55;2.22;;;4.00;73.40;;;2.91;58.60;94096.38;5038945;28;20226;-83
2022/01/06 02:47:57;;;;;;;6.60;2.25;;;4.00;73.50;;;2.93;58.52;94100.41;5038731;28;20625;-83
2022/01/06 02:50:26;;;;;;;3.15;2.17;;;4.00;73.40;;;2.94;58.76;94096.88;5055164;28;20204;-83
2022/01/06 02:52:54;;;;;;;4.68;2.10;;;4.00;73.40;;;2.96;58.93;94104.47;5038390;28;20233;-83
2022/01/06 02:55:22;;;;;;;4.47;2.28;;;4.00;73.50;;;2.93;59.06;94104.78;5038664;28;20715;-82
2022/01/06 02:57:49;;;;;;;3.70;2.10;;;4.00;73.40;;;2.96;58.61;94112.22;5038591;28;20195;-83
2022/01/06 03:00:18;;;;;;;4.15;1.98;;;4.00;73.40;;;2.98;58.53;94100.72;5042433;28;20215;-84
2022/01/06 03:02:46;;;;;;;3.75;2.33;;;4.00;73.50;;;3.00;58.69;94103.97;5035462;28;20200;-83
2022/01/06 03:05:16;;;;;;;3.50;2.30;;;4.00;73.50;;;3.00;58.62;94119.50;5021093;28;20270;-84
2022/01/06 03:07:44;;;;;;;4.45;2.20;;;4.00;73.40;;;3.00;58.84;94108.31;5056753;28;20196;-84
2022/01/06 03:10:15;;;;;;;3.22;2.30;;;4.00;73.40;;;3.01;58.75;94113.34;5042350;28;20219;-83
2022/01/06 03:12:45;;;;;;;5.63;2.60;;;4.00;73.40;;;2.99;58.75;94104.13;5042531;28;20653;-83
2022/01/06 03:15:18;;;;;;;2.42;2.03;;;4.00;73.30;;;3.00;58.43;94127.28;5038634;28;20211;-83
2022/01/06 03:17:49;;;;;;;3.05;2.08;;;4.00;73.20;;;3.03;58.68;94123.56;5055791;28;20199;-83
2022/01/06 03:20:19;;;;;;;3.15;1.98;;;4.00;73.30;;;3.02;58.71;94134.88;5055527;28;20569;-83
2022/01/06 03:22:47;;;;;;;4.68;2.33;;;4.00;73.30;;;3.06;58.81;94114.63;5054462;28;20395;-84
2022/01/06 03:25:15;;;;;;;3.30;1.98;;;4.00;73.40;;;3.03;58.14;94139.09;5070308;28;20219;-83
2022/01/06 03:27:44;;;;;;;3.97;2.20;;;4.00;73.20;;;3.03;58.63;94136.50;5072907;28;20649;-84
2022/01/06 03:30:18;;;;;;;5.35;2.20;;;4.10;73.30;;;3.01;58.54;94128.09;5037014;28;20723;-83
2022/01/06 03:32:46;;;;;;;4.70;2.15;;;4.10;73.30;;;3.04;58.99;94136.34;5053376;28;20661;-83
2022/01/06 03:35:18;;;;;;;4.28;2.15;;;4.00;73.40;;;3.08;58.54;94128.25;5022003;28;20299;-83
2022/01/06 03:37:47;;;;;;;2.92;2.25;;;4.10;73.50;;;3.04;58.74;94115.59;5034502;28;20211;-83
2022/01/06 03:40:14;;;;;;;3.63;2.28;;;4.10;73.50;;;3.12;58.83;94139.88;5038360;28;20216;-83
2022/01/06 03:42:42;;;;;;;4.05;2.20;;;4.00;73.40;;;3.09;58.78;94146.22;5038712;28;20246;-83
2022/01/06 03:45:13;;;;;;;4.03;2.30;;;4.10;73.50;;;3.12;58.62;94124.34;5038624;28;20266;-82
2022/01/06 03:47:41;;;;;;;4.45;2.20;;;4.10;73.40;;;3.10;58.72;94154.78;5028434;28;20255;-82
2022/01/06 03:50:11;;;;;;;2.70;2.13;;;4.10;73.40;;;3.11;58.27;94133.88;5038303;28;20603;-82
2022/01/06 03:52:39;;;;;;;4.53;1.90;;;4.10;73.40;;;3.11;58.46;94127.91;5038427;28;20188;-83
2022/01/06 03:55:10;;;;;;;3.45;2.15;;;4.10;73.40;;;3.08;58.23;94142.00;5038486;28;20212;-83
2022/01/06 03:57:38;;;;;;;3.13;2.30;;;4.10;73.40;;;3.08;58.64;94134.22;5038481;28;20202;-83
2022/01/06 04:00:09;;;;;;;2.47;2.28;;;4.10;73.40;;;3.10;58.94;94153.00;5023553;28;20224;-82
2022/01/06 04:02:45;;;;;;;5.53;2.70;;;4.10;73.40;;;3.07;58.80;94145.56;5032449;28;20203;-84
2022/01/06 04:05:13;;;;;;;2.90;2.13;;;4.10;73.40;;;3.07;58.77;94147.34;5055849;28;20692;-83
2022/01/06 04:07:41;;;;;;;3.55;2.08;;;4.10;73.50;;;3.09;58.85;94160.94;5038620;28;20194;-84
2022/01/06 04:10:11;;;;;;;2.83;2.00;;;4.10;73.50;;;3.07;59.07;94157.72;5045574;28;20254;-83
2022/01/06 04:12:39;;;;;;;2.85;2.25;;;4.10;73.50;;;3.07;58.72;94163.69;5034056;28;20275;-84
2022/01/06 04:15:11;;;;;;;3.78;2.22;;;4.10;73.50;;;3.08;58.73;94173.09;5036195;28;20219;-83
2022/01/06 04:17:40;;;;;;;3.70;2.17;;;4.10;73.50;;;3.11;58.86;94172.75;5051948;28;20586;-83
2022/01/06 04:20:09;;;;;;;3.95;2.58;;;4.10;73.60;;;3.07;58.75;94171.47;5071974;28;20203;-84
2022/01/06 04:22:38;;;;;;;3.78;2.20;;;4.10;73.60;;;3.08;59.19;94172.28;5056786;28;20215;-84
2022/01/06 04:25:06;;;;;;;3.53;2.20;;;4.10;73.50;;;3.10;58.80;94168.56;5034756;28;20219;-83
2022/01/06 04:27:33;;;;;;;6.13;2.63;;;4.10;73.60;;;3.12;59.11;94179.53;5054994;28;20199;-83
2022/01/06 04:30:02;;;;;;;3.90;2.25;;;4.10;73.60;;;3.12;58.67;94191.72;5040563;28;20314;-84
2022/01/06 04:32:29;;;;;;;2.63;2.28;;;4.10;73.70;;;3.11;58.66;94180.50;5057409;28;20202;-84
2022/01/06 04:34:56;;;;;;;3.75;2.42;;;4.10;73.60;;;3.10;59.09;94180.69;5039476;28;20306;-83
2022/01/06 04:37:25;;;;;;;4.50;2.25;;;4.10;73.60;;;3.10;59.01;94184.09;5056623;28;20215;-83
2022/01/06 04:39:52;;;;;;;3.55;2.17;;;4.10;73.60;;;3.07;58.91;94202.56;5039895;28;20756;-83
2022/01/06 04:42:19;;;;;;;5.25;2.60;;;4.10;73.50;;;3.09;59.20;94197.19;5054872;28;20653;-84
2022/01/06 04:44:46;;;;;;;3.20;2.40;;;4.10;73.50;;;3.07;58.90;94205.16;5037945;28;20215;-83
2022/01/06 04:47:14;;;;;;;3.03;2.15;;;4.10;73.60;;;3.07;59.13;94196.56;5054835;28;20199;-83
2022/01/06 04:49:41;;;;;;;4.57;2.28;;;4.10;73.60;;;3.06;59.36;94197.53;5038199;28;20211;-82
2022/01/06 04:52:08;;;;;;;4.07;2.60;;;4.10;73.60;;;3.07;59.31;94205.16;5037462;28;20245;-84
2022/01/06 04:54:35;;;;;;;4.60;2.65;;;4.10;73.60;;;3.07;59.11;94201.75;5051557;28;20688;-84
2022/01/06 04:57:04;;;;;;;3.15;2.60;;;4.10;73.50;;;3.04;58.85;94203.69;5054717;28;20199;-83
2022/01/06 04:59:31;;;;;;;4.05;2.30;;;4.10;73.50;;;2.95;58.96;94191.69;5066546;28;20446;-84
2022/01/06 05:01:58;;;;;;;3.08;2.25;;;4.10;73.40;;;2.90;59.27;94199.16;5039047;28;20235;-84
2022/01/06 05:04:25;;;;;;;4.85;2.67;;;4.00;73.30;;;2.86;59.19;94201.25;5035523;28;21341;-83
2022/01/06 05:06:53;;;;;;;3.28;2.40;;;4.00;73.30;;;2.79;59.33;94202.88;5019027;28;20208;-84
2022/01/06 05:09:20;;;;;;;4.80;2.55;;;4.00;73.30;;;2.77;59.21;94201.41;5047213;28;20212;-84
2022/01/06 05:11:47;;;;;;;4.68;2.25;;;3.90;73.40;;;2.76;59.33;94207.56;5036351;28;20664;-84
2022/01/06 05:14:15;;;;;;;3.17;2.22;;;3.90;73.60;;;2.76;59.63;94231.69;5055538;28;20608;-85
2022/01/06 05:16:42;;;;;;;3.42;2.40;;;3.90;73.70;;;2.79;59.70;94227.97;5055515;28;20650;-85
2022/01/06 05:19:09;;;;;;;4.65;2.83;;;3.90;73.80;;;2.80;59.70;94224.41;5034937;28;20389;-83
2022/01/06 05:21:36;;;;;;;9.20;3.40;;;3.90;73.90;;;2.80;59.37;94219.25;5037800;28;20273;-83
2022/01/06 05:24:11;;;;;;;6.38;2.92;;;3.90;73.90;;;2.80;59.68;94227.00;5071619;28;20207;-83
2022/01/06 05:26:40;;;;;;;5.07;2.95;;;3.80;73.80;;;2.77;59.70;94222.97;5055990;28;20415;-83
2022/01/06 05:29:09;;;;;;;16.23;6.55;;;3.90;73.90;;;2.78;59.42;94221.16;5054672;28;20731;-84
2022/01/06 05:31:37;;;;;;;13.40;6.15;;;3.80;73.70;;;2.78;59.38;94227.16;5071950;28;20288;-82
2022/01/06 05:34:05;;;;;;;7.18;3.90;;;3.80;73.60;;;2.72;59.63;94223.44;5038027;28;20258;-84
2022/01/06 05:36:37;;;;;;;9.30;4.00;;;3.80;73.60;;;2.71;59.55;94241.72;5054602;28;20701;-82
2022/01/06 05:39:05;;;;;;;8.80;5.03;;;3.80;73.60;;;2.64;59.52;94231.19;5054300;28;20260;-83
2022/01/06 05:41:33;;;;;;;10.48;6.25;;;3.80;73.60;;;2.64;59.52;94243.34;5054347;28;20211;-83
2022/01/06 05:44:00;;;;;;;7.43;3.92;;;3.70;73.50;;;2.62;59.92;94250.44;5049722;28;20668;-84
2022/01/06 05:46:27;;;;;;;3.92;2.80;;;3.70;73.60;;;2.61;59.86;94254.00;5038625;28;20227;-83
2022/01/06 05:48:55;;;;;;;5.82;3.35;;;3.70;73.80;;;2.62;59.83;94253.03;5054249;28;20207;-85
2022/01/06 05:51:22;;;;;;;4.03;2.53;;;3.70;73.90;;;2.60;60.03;94258.38;5038505;28;20223;-85
2022/01/06 05:53:50;;;;;;;3.88;2.75;;;3.70;74.10;;;2.63;59.86;94265.81;5054358;28;20219;-85
2022/01/06 05:56:17;;;;;;;5.82;2.70;;;3.70;74.20;;;2.67;60.00;94263.72;5034768;28;20709;-84
2022/01/06 05:58:45;;;;;;;4.00;2.63;;;3.70;74.20;;;2.66;59.70;94275.03;5034216;28;20203;-84
2022/01/06 06:01:12;;;;;;;4.60;2.55;;;3.70;74.20;;;2.64;59.79;94259.66;5054769;28;20212;-83
2022/01/06 06:03:40;;;;;;;4.43;2.83;;;3.70;74.30;;;2.67;60.06;94277.50;5037593;28;20577;-85
2022/01/06 06:06:07;;;;;;;4.50;2.63;;;3.70;74.30;;;2.69;59.94;94266.97;5054435;28;20215;-84
2022/01/06 06:08:34;;;;;;;4.65;2.60;;;3.70;74.30;;;2.74;60.19;94284.63;5054663;28;20278;-85
2022/01/06 06:11:01;;;;;;;5.78;2.80;;;3.70;74.30;;;2.75;60.15;94283.63;5054402;28;20222;-85
2022/01/06 06:13:28;;;;;;;4.93;2.75;;;3.70;74.30;;;2.79;60.13;94270.22;5052003;28;20196;-85
2022/01/06 06:15:55;;;;;;;3.30;2.45;;;3.80;74.40;;;2.84;59.77;94280.88;5066584;28;20295;-84
2022/01/06 06:18:22;;;;;;;4.90;2.45;;;3.80;74.30;;;2.84;60.02;94293.84;5056250;28;20713;-85
2022/01/06 06:20:52;;;;;;;3.92;2.55;;;3.80;75.10;;;2.81;59.83;94290.78;5055965;28;20223;-85
2022/01/06 06:23:19;;;;;;;3.42;2.50;;;3.80;74.30;;;2.83;60.00;94294.00;5056219;28;20298;-85
2022/01/06 06:25:46;;;;;;;4.38;2.50;;;3.80;74.30;;;2.88;59.79;94295.16;5056386;28;20225;-83
2022/01/06 06:28:14;;;;;;;3.22;2.60;;;3.90;74.40;;;2.95;59.85;94297.09;5039486;28;20276;-84
2022/01/06 06:30:41;;;;;;;5.00;2.60;;;4.00;74.40;;;2.97;59.66;94298.56;5055032;28;20681;-85
2022/01/06 06:33:08;;;;;;;3.03;2.38;;;3.90;74.30;;;3.00;59.44;94302.63;5056036;28;20215;-85
2022/01/06 06:35:35;;;;;;;4.43;2.35;;;3.90;74.20;;;3.02;59.55;94311.03;5072523;28;20308;-84
2022/01/06 06:38:02;;;;;;;3.60;2.50;;;3.90;74.20;;;3.01;59.59;94302.44;5055677;28;20221;-85
2022/01/06 06:40:30;;;;;;;3.03;2.65;;;3.90;74.20;;;3.04;59.51;94314.28;5055658;28;20251;-85
2022/01/06 06:42:57;;;;;;;3.28;2.72;;;4.00;74.20;;;3.05;59.64;94308.13;5055897;28;20206;-85
2022/01/06 06:45:25;;;;;;;4.00;2.60;;;4.00;75.00;;;3.09;59.45;94322.41;5035114;28;20216;-85
2022/01/06 06:47:52;;;;;;;5.63;2.90;;;4.00;74.20;;;3.11;59.56;94319.63;5067426;28;20199;-85
2022/01/06 06:50:21;;;;;;;3.13;2.30;;;4.10;74.20;;;3.09;59.46;94326.75;5039278;28;20243;-85
2022/01/06 06:52:48;;;;;;;4.55;2.97;;;4.10;73.90;;;3.08;59.34;94333.72;5055826;28;20612;-86
2022/01/06 06:55:16;;;;;;;3.67;2.60;;;4.10;74.00;;;3.09;59.39;94317.22;5038810;28;20235;-86
2022/01/06 06:57:43;;;;;;;4.40;2.58;;;4.10;74.00;;;3.12;59.51;94331.63;5038600;28;20700;-85
2022/01/06 07:00:11;;;;;;;5.90;2.70;;;4.10;74.10;;;3.15;59.52;94337.28;5064048;28;20219;-85
2022/01/06 07:02:38;;;;;;;3.35;2.33;;;4.10;74.00;;;3.15;59.32;94334.72;5039112;28;20199;-86
2022/01/06 07:05:08;;;;;;;3.95;2.40;;;4.10;74.00;;;3.20;59.33;94347.97;5055662;28;20266;-85
2022/01/06 07:07:35;;;;;;;4.85;2.83;;;4.10;73.90;;;3.22;59.64;94342.63;5055860;28;20199;-86
2022/01/06 07:10:04;;;;;;;3.03;2.45;;;4.20;73.90;;;3.15;59.45;94350.25;5055394;28;20318;-85
2022/01/06 07:12:31;;;;;;;4.30;2.90;;;4.20;73.80;;;3.18;58.85;94354.31;5055692;28;20657;-85
2022/01/06 07:15:00;;;;;;;3.42;2.55;;;4.20;73.80;;;3.17;58.88;94366.47;5038838;28;20231;-86
2022/01/06 07:17:28;;;;;;;3.95;2.72;;;4.20;73.80;;;3.12;59.28;94357.53;5038392;28;20198;-86
2022/01/06 07:19:55;;;;;;;4.10;3.00;;;4.20;73.70;;;3.17;58.89;94350.09;5038895;28;20237;-86
2022/01/06 07:22:22;;;;;;;3.65;2.50;;;4.10;73.80;;;3.22;59.10;94371.13;5054996;28;20195;-85
2022/01/06 07:24:50;;;;;;;4.40;2.88;;;4.20;73.90;;;3.23;59.55;94379.75;5038609;28;20229;-86
2022/01/06 07:27:17;;;;;;;2.70;2.50;;;4.20;74.10;;;3.28;59.77;94386.06;5034739;28;20257;-86
2022/01/06 07:29:45;;;;;;;5.22;3.10;;;4.20;74.20;;;3.27;60.46;94379.28;5047223;28;20270;-87
2022/01/06 07:32:13;;;;;;;5.55;3.28;;;4.20;74.40;;;3.28;60.31;94380.88;5052213;28;20650;-86
2022/01/06 07:34:41;;;;;;;5.13;3.10;;;4.30;74.50;;;3.28;60.61;94378.28;5048812;28;20227;-85
2022/01/06 07:37:09;;;;;;;4.43;2.85;;;4.30;74.60;;;3.23;60.50;94382.34;5037282;28;20200;-87
2022/01/06 07:39:37;;;;;;;4.22;2.65;;;4.20;74.50;;;3.24;60.63;94383.97;5035146;28;20220;-86
2022/01/06 07:42:05;;;;;;;4.60;3.03;;;4.20;74.60;;;3.24;60.48;94389.16;5051669;28;20219;-86
2022/01/06 07:44:34;;;;;;;3.65;2.47;;;4.20;74.60;;;3.31;60.13;94392.72;5052410;28;20216;-86
2022/01/06 07:47:02;;;;;;;3.85;2.92;;;4.30;74.70;;;3.28;60.57;94406.78;5054623;28;20660;-87
2022/01/06 07:49:30;;;;;;;5.18;2.90;;;4.20;74.70;;;3.34;60.28;94400.16;5035335;28;20277;-86
2022/01/06 07:51:57;;;;;;;9.43;3.00;;;4.20;74.60;;;3.36;60.33;94395.63;5036174;28;20195;-85
2022/01/06 07:54:24;;;;;;;59.28;7.03;;;4.30;74.80;;;3.40;60.52;94407.31;5041147;28;20207;-86
2022/01/06 07:56:52;;;;;;;23.58;4.53;;;4.30;74.80;;;3.46;60.57;94409.25;5040214;28;20287;-86
2022/01/06 07:59:19;;;;;;;27.85;5.75;;;4.30;74.90;;;3.50;60.55;94414.94;5056638;28;20223;-86
2022/01/06 08:01:46;;;;;;;7.53;3.13;;;4.40;75.00;;;3.48;60.41;94403.94;5057191;28;20269;-87
2022/01/06 08:04:14;;;;;;;92.22;6.95;;;4.40;75.00;;;3.56;60.16;94416.88;5037056;28;20285;-86
2022/01/06 08:06:42;;;;;;;5.00;2.90;;;4.40;74.70;;;3.49;59.94;94405.53;5040370;28;20271;-86
2022/01/06 08:09:10;;;;;;;8.45;2.75;;;4.50;74.60;;;3.56;59.65;94413.47;5038619;28;20227;-86
2022/01/06 08:11:38;;;;;;;20.85;4.85;;;4.50;74.60;;;3.65;59.95;94428.06;5062682;28;20223;-86
2022/01/06 08:14:05;;;;;;;4.80;3.50;;;4.50;74.60;;;3.63;59.85;94419.66;5040632;28;20211;-85
2022/01/06 08:16:33;;;;;;;5.15;3.15;;;4.60;74.40;;;3.60;59.53;94414.78;5041852;28;20247;-85
2022/01/06 08:19:00;;;;;;;4.55;2.90;;;4.60;74.30;;;3.56;59.45;94408.28;5052823;28;20199;-88
2022/01/06 08:21:28;;;;;;;10.45;3.58;;;4.50;74.20;;;3.58;59.21;94411.56;5073732;28;20696;-87
2022/01/06 08:23:55;;;;;;;6.80;3.65;;;4.60;74.30;;;3.63;59.38;94422.25;5058329;28;20208;-87
2022/01/06 08:26:23;;;;;;;5.85;3.42;;;4.50;74.30;;;3.65;59.56;94425.47;5042148;28;20211;-87
2022/01/06 08:28:50;;;;;;;8.30;3.17;;;4.60;74.30;;;3.70;59.76;94431.00;5041513;28;20199;-87
2022/01/06 08:31:18;;;;;;;49.85;5.70;;;4.60;74.40;;;3.68;59.56;94418.19;5038962;28;20265;-87
2022/01/06 08:33:46;;;;;;;7.82;3.50;;;4.60;74.60;;;3.76;59.61;94435.53;5066758;28;20195;-87
2022/01/06 08:36:14;;;;;;;4.72;3.45;;;4.60;74.50;;;3.77;59.43;94431.97;5031273;28;20280;-86
2022/01/06 08:38:42;;;;;;;12.75;3.92;;;4.60;74.60;;;3.83;59.31;94433.09;5031642;28;20199;-88
2022/01/06 08:41:10;;;;;;;5.55;3.67;;;4.70;74.60;;;3.92;59.37;94436.50;5052985;28;20222;-86
2022/01/06 08:43:38;;;;;;;5.13;3.10;;;4.70;74.60;;;3.99;59.32;94450.44;5045234;28;20200;-86
2022/01/06 08:46:06;;;;;;;17.23;4.38;;;4.70;75.40;;;4.04;59.04;94445.59;5039193;28;20219;-86
2022/01/06 08:48:33;;;;;;;5.80;3.50;;;4.80;74.70;;;4.12;58.98;94442.97;5047853;28;20277;-86
2022/01/06 08:51:01;;;;;;;6.22;3.58;;;4.80;74.40;;;4.17;59.24;94442.50;5049153;28;20257;-84
2022/01/06 08:53:28;;;;;;;4.55;3.70;;;4.90;74.50;;;4.28;58.88;94443.94;5057627;28;20218;-85
2022/01/06 08:55:55;;;;;;;5.20;3.50;;;4.90;74.40;;;4.27;58.77;94443.16;5051957;28;20227;-85
2022/01/06 08:58:23;;;;;;;8.43;3.92;;;5.00;74.30;;;4.31;58.45;94441.03;5063196;28;20188;-85
2022/01/06 09:00:50;;;;;;;4.97;4.30;;;5.10;74.30;;;4.47;58.79;94437.59;5035017;28;20215;-85
2022/01/06 09:03:17;;;;;;;5.43;3.83;;;5.10;74.50;;;4.54;58.71;94442.94;5056618;28;20198;-84
2022/01/06 09:05:45;;;;;;;5.40;3.22;;;5.10;74.40;;;4.63;57.95;94452.34;5040454;28;20222;-84
2022/01/06 09:08:12;;;;;;;5.18;3.35;;;5.30;74.10;;;4.58;57.28;94457.22;5037160;28;20199;-85
2022/01/06 09:10:40;;;;;;;4.82;3.10;;;5.30;73.70;;;4.55;56.81;94454.94;5037483;28;20278;-84
2022/01/06 09:13:26;;;;;;;5.18;3.17;;;5.30;73.60;;;4.62;57.53;94471.47;5059176;28;20245;-85
2022/01/06 09:15:54;;;;;;;5.10;2.70;;;5.40;73.70;;;4.66;57.64;94464.97;5053164;28;20230;-85
2022/01/06 09:18:21;;;;;;;3.55;2.53;;;5.40;73.60;;;4.70;57.75;94466.28;5052208;28;20195;-84
2022/01/06 09:20:49;;;;;;;2.97;2.20;;;5.50;74.40;;;4.70;57.61;94468.88;5053020;28;20219;-84
2022/01/06 09:23:16;;;;;;;2.58;2.00;;;5.50;73.40;;;4.70;57.50;94466.28;5039804;28;20195;-84
2022/01/06 09:25:44;;;;;;;3.40;2.22;;;5.50;73.40;;;4.77;57.63;94472.44;5055554;28;20219;-85
2022/01/06 09:28:11;;;;;;;3.75;2.08;;;5.60;73.40;;;4.79;57.24;94475.66;5038658;28;20199;-84
2022/01/06 09:30:38;;;;;;;2.72;2.20;;;5.50;73.10;;;4.80;57.06;94484.28;5037404;28;20257;-85
2022/01/06 09:33:06;;;;;;;2.63;1.80;;;5.60;73.00;;;4.77;57.00;94482.81;5036480;28;20211;-84
2022/01/06 09:35:33;;;;;;;2.33;1.90;;;5.60;72.80;;;4.83;57.02;94483.13;5039528;28;20591;-85
2022/01/06 09:38:01;;;;;;;2.63;1.90;;;5.70;72.80;;;4.85;56.66;94478.59;5055111;28;20256;-85
2022/01/06 09:40:29;;;;;;;2.85;2.00;;;5.70;72.80;;;4.87;56.28;94487.84;5033474;28;20690;-85
2022/01/06 09:42:57;;;;;;;2.90;2.10;;;5.70;72.80;;;4.83;56.01;94490.91;5055623;28;20237;-85
2022/01/06 09:45:27;;;;;;;3.70;2.10;;;5.70;72.80;;;4.85;56.19;94486.38;5037121;28;20242;-84
2022/01/06 09:47:54;;;;;;;3.00;2.13;;;5.70;72.80;;;4.84;56.25;94474.34;5034451;28;20207;-84
2022/01/06 09:50:21;;;;;;;1.92;1.80;;;5.80;72.90;;;4.92;56.68;94482.09;5078487;28;20226;-85
2022/01/06 09:52:50;;;;;;;2.03;1.67;;;5.70;72.80;;;4.98;56.86;94489.25;5055943;28;20225;-85
2022/01/06 09:55:19;;;;;;;5.25;2.15;;;5.70;72.90;;;4.99;56.79;94488.25;5053517;28;20223;-85
2022/01/06 09:57:57;;;;;;;2.97;1.95;;;5.70;72.80;;;5.00;56.49;94489.09;5052639;28;20205;-83
2022/01/06 10:00:27;;;;;;;2.58;1.88;;;5.80;72.50;;;4.95;55.97;94492.97;5051925;28;20223;-84
2022/01/06 10:03:01;;;;;;;1.88;1.50;;;5.80;72.60;;;4.98;56.45;94494.47;5037405;28;20294;-84
2022/01/06 10:05:45;;;;;;;3.00;1.80;;;5.90;72.60;;;4.91;55.56;94499.50;5051666;28;20219;-84
2022/01/06 10:08:25;;;;;;;3.10;1.90;;;5.80;72.10;;;4.85;56.38;94502.78;5051946;28;20195;-84
2022/01/06 10:10:52;;;;;;;2.47;1.70;;;5.80;72.50;;;4.81;56.47;94504.09;5050782;28;20612;-84
2022/01/06 10:13:20;;;;;;;3.05;1.75;;;5.70;72.50;;;4.78;56.38;94514.81;5038671;28;20192;-84
2022/01/06 10:15:47;;;;;;;45.03;4.78;;;5.70;72.40;;;4.74;57.01;94516.13;5037220;28;20251;-86
2022/01/06 10:18:17;;;;;;;5.13;2.45;;;5.70;72.70;;;4.65;57.37;94513.53;5037655;28;20257;-87
2022/01/06 10:20:47;;;;;;;3.00;1.80;;;5.60;72.80;;;4.68;57.53;94522.78;5036672;28;20228;-87
2022/01/06 10:23:16;;;;;;;3.30;1.80;;;5.60;72.80;;;4.60;57.86;94533.16;5053748;28;20203;-86
2022/01/06 10:25:50;;;;;;;3.78;2.20;;;5.60;72.80;;;4.56;57.93;94530.09;5053966;28;20203;-86
2022/01/06 10:28:23;;;;;;;2.75;1.80;;;5.60;72.80;;;4.60;58.45;94538.38;5040598;28;20191;-87
2022/01/06 10:30:51;;;;;;;3.45;1.92;;;5.60;73.00;;;4.51;59.04;94549.75;5038386;28;20253;-86
2022/01/06 10:33:23;;;;;;;6.97;2.08;;;5.50;73.40;;;4.46;59.40;94545.03;5038670;28;20201;-87
2022/01/06 10:35:51;;;;;;;4.90;2.25;;;5.50;73.60;;;4.40;59.78;94551.69;5054828;28;20219;-86
2022/01/06 10:38:26;;;;;;;2.67;1.92;;;5.40;73.80;;;4.35;60.08;94555.75;5038365;28;20245;-87
2022/01/06 10:41:15;;;;;;;5.80;2.22;;;5.40;74.00;;;4.26;60.52;94555.75;5034480;28;20570;-87
2022/01/06 10:43:52;;;;;;;4.10;1.92;;;5.30;74.20;;;4.25;60.71;94564.50;5035558;28;20199;-87